createdAt,value
2023-01-07T00:01:02.960Z,145637.31
2023-01-07T00:03:29.841Z,145637.31
2023-01-07T00:06:07.061Z,145643.41
2023-01-07T00:08:35.047Z,145653.13
2023-01-07T00:11:02.341Z,145648.28
2023-01-07T00:13:29.223Z,145659.19
2023-01-07T00:15:59.769Z,145656.78
2023-01-07T00:18:26.695Z,145661.63
2023-01-07T00:20:56.323Z,145625.19
2023-01-07T00:23:24.453Z,145650.66
2023-01-07T00:25:59.833Z,145625.19
2023-01-07T00:28:26.743Z,145647.03
2023-01-07T00:30:58.749Z,145650.66
2023-01-07T00:33:28.151Z,145657.97
2023-01-07T00:36:01.574Z,145643.41
2023-01-07T00:38:28.399Z,145625.19
2023-01-07T00:40:55.251Z,145637.31
2023-01-07T00:43:22.195Z,145644.63
2023-01-07T00:45:49.067Z,145660.38
2023-01-07T00:48:17.478Z,145670.09
2023-01-07T00:50:44.777Z,145689.56
2023-01-07T00:53:12.019Z,145675.00
2023-01-07T00:55:38.994Z,145653.13
2023-01-07T00:58:05.985Z,145673.75
2023-01-07T01:00:32.938Z,145654.31
2023-01-07T01:02:59.851Z,145665.25
2023-01-07T01:05:26.665Z,145668.91
2023-01-07T01:07:53.527Z,145661.63
2023-01-07T01:10:21.865Z,145667.69
2023-01-07T01:12:49.744Z,145665.25
2023-01-07T01:15:16.832Z,145651.88
2023-01-07T01:17:43.673Z,145664.03
2023-01-07T01:20:13.429Z,145659.19
2023-01-07T01:22:40.485Z,145642.16
2023-01-07T01:25:07.920Z,145662.84
2023-01-07T01:27:34.741Z,145666.50
2023-01-07T01:30:02.336Z,145665.25
2023-01-07T01:32:30.029Z,145642.16
2023-01-07T01:34:56.960Z,145643.41
2023-01-07T01:37:23.942Z,145625.19
2023-01-07T01:39:50.994Z,145623.94
2023-01-07T01:42:20.320Z,145647.03
2023-01-07T01:44:47.212Z,145622.72
2023-01-07T01:47:25.580Z,145643.41
2023-01-07T01:50:09.062Z,145636.09
2023-01-07T01:52:38.599Z,145645.81
2023-01-07T01:55:08.072Z,145653.13
2023-01-07T01:57:36.420Z,145645.81
2023-01-07T02:00:04.497Z,145640.97
2023-01-07T02:02:43.313Z,145662.84
2023-01-07T02:05:10.754Z,145639.75
2023-01-07T02:07:37.854Z,145626.38
2023-01-07T02:10:21.655Z,145636.09
2023-01-07T02:12:51.966Z,145597.19
2023-01-07T02:15:24.290Z,145589.94
2023-01-07T02:17:57.475Z,145619.06
2023-01-07T02:20:43.163Z,145616.69
2023-01-07T02:23:16.310Z,145621.53
2023-01-07T02:25:55.169Z,145628.78
2023-01-07T02:28:27.926Z,145458.75
2023-01-07T02:31:07.551Z,145640.97
2023-01-07T02:33:38.115Z,145636.09
2023-01-07T02:36:05.481Z,145625.19
2023-01-07T02:38:41.326Z,145636.09
2023-01-07T02:41:11.061Z,145656.78
2023-01-07T02:43:50.790Z,145630.03
2023-01-07T02:46:23.966Z,145657.97
2023-01-07T02:48:51.163Z,145636.09
2023-01-07T02:51:17.974Z,145650.66
2023-01-07T02:53:46.570Z,145626.38
2023-01-07T02:56:19.986Z,145640.97
2023-01-07T02:58:56.030Z,145640.97
2023-01-07T03:01:36.939Z,145645.81
2023-01-07T03:04:10.173Z,145650.66
2023-01-07T03:06:37.121Z,145670.09
2023-01-07T03:09:09.823Z,145677.41
2023-01-07T03:12:03.761Z,145673.75
2023-01-07T03:14:49.510Z,145670.09
2023-01-07T03:17:19.089Z,145670.09
2023-01-07T03:19:49.704Z,145687.13
2023-01-07T03:22:19.677Z,145660.38
2023-01-07T03:24:50.064Z,145665.25
2023-01-07T03:27:20.009Z,145667.69
2023-01-07T03:29:51.479Z,145657.97
2023-01-07T03:32:23.340Z,145633.66
2023-01-07T03:34:50.885Z,145636.09
2023-01-07T03:37:19.929Z,145640.97
2023-01-07T03:39:47.514Z,145642.16
2023-01-07T03:42:33.238Z,145645.81
2023-01-07T03:45:00.468Z,145633.66
2023-01-07T03:47:31.291Z,145660.38
2023-01-07T03:49:58.314Z,145670.09
2023-01-07T03:52:25.230Z,145684.72
2023-01-07T03:54:52.359Z,145670.09
2023-01-07T03:57:19.558Z,145668.91
2023-01-07T03:59:46.388Z,145657.97
2023-01-07T04:02:14.245Z,145623.94
2023-01-07T04:04:41.322Z,145608.16
2023-01-07T04:07:08.162Z,145622.72
2023-01-07T04:09:35.101Z,145606.97
2023-01-07T04:12:01.931Z,145628.78
2023-01-07T04:14:29.323Z,145626.38
2023-01-07T04:16:56.213Z,145628.78
2023-01-07T04:19:23.235Z,145623.94
2023-01-07T04:21:50.230Z,145619.06
2023-01-07T04:24:17.061Z,145616.69
2023-01-07T04:26:44.044Z,145628.78
2023-01-07T04:29:11.744Z,145647.03
2023-01-07T04:31:39.011Z,145622.72
2023-01-07T04:34:06.187Z,145622.72
2023-01-07T04:36:33.149Z,145621.53
2023-01-07T04:39:01.100Z,145616.69
2023-01-07T04:41:28.016Z,145627.59
2023-01-07T04:43:54.986Z,145637.31
2023-01-07T04:46:21.893Z,145611.81
2023-01-07T04:48:48.838Z,145608.16
2023-01-07T04:51:16.094Z,145606.97
2023-01-07T04:53:43.313Z,145589.94
2023-01-07T04:56:10.258Z,145588.75
2023-01-07T04:58:38.295Z,145594.78
2023-01-07T05:01:05.835Z,145614.22
2023-01-07T05:03:37.271Z,145597.19
2023-01-07T05:06:05.547Z,145580.22
2023-01-07T05:08:33.332Z,145580.22
2023-01-07T05:11:01.992Z,145582.63
2023-01-07T05:13:31.461Z,145585.09
2023-01-07T05:16:00.440Z,145599.66
2023-01-07T05:18:27.412Z,145592.34
2023-01-07T05:20:54.497Z,145597.19
2023-01-07T05:23:21.314Z,145583.88
2023-01-07T05:25:49.472Z,145602.09
2023-01-07T05:28:16.611Z,145610.56
2023-01-07T05:30:43.725Z,145596.00
2023-01-07T05:33:10.633Z,145592.34
2023-01-07T05:35:37.929Z,145589.94
2023-01-07T05:38:04.750Z,145572.91
2023-01-07T05:40:32.449Z,145596.00
2023-01-07T05:42:59.491Z,145594.78
2023-01-07T05:45:27.740Z,145599.66
2023-01-07T05:47:54.562Z,145602.09
2023-01-07T05:50:21.372Z,145602.09
2023-01-07T05:52:50.494Z,145606.97
2023-01-07T05:55:17.397Z,145616.69
2023-01-07T05:57:44.256Z,145596.00
2023-01-07T06:00:11.670Z,145587.50
2023-01-07T06:02:41.442Z,145589.94
2023-01-07T06:05:08.808Z,145569.28
2023-01-07T06:07:35.729Z,145553.50
2023-01-07T06:10:03.346Z,145554.69
2023-01-07T06:12:30.495Z,145575.38
2023-01-07T06:14:57.348Z,145562.00
2023-01-07T06:17:24.238Z,145565.66
2023-01-07T06:19:51.189Z,145558.34
2023-01-07T06:22:17.998Z,145577.78
2023-01-07T06:24:44.809Z,145582.63
2023-01-07T06:27:12.496Z,145575.38
2023-01-07T06:29:39.437Z,145580.22
2023-01-07T06:32:06.405Z,145575.38
2023-01-07T06:34:33.227Z,145571.72
2023-01-07T06:37:00.086Z,145531.63
2023-01-07T06:39:26.938Z,145558.34
2023-01-07T06:41:53.783Z,145555.91
2023-01-07T06:44:20.623Z,145562.00
2023-01-07T06:46:47.437Z,145565.66
2023-01-07T06:49:14.245Z,145557.16
2023-01-07T06:51:41.090Z,145536.47
2023-01-07T06:54:07.900Z,145543.78
2023-01-07T06:56:34.769Z,145560.75
2023-01-07T06:59:01.622Z,145548.66
2023-01-07T07:01:28.514Z,145526.78
2023-01-07T07:03:55.343Z,145531.63
2023-01-07T07:06:22.183Z,145526.78
2023-01-07T07:08:48.999Z,145540.13
2023-01-07T07:11:15.877Z,145531.63
2023-01-07T07:13:42.668Z,145519.47
2023-01-07T07:16:09.607Z,145531.63
2023-01-07T07:18:36.975Z,145536.47
2023-01-07T07:21:03.953Z,145529.22
2023-01-07T07:23:30.798Z,145529.22
2023-01-07T07:25:57.632Z,145529.22
2023-01-07T07:28:24.463Z,145513.41
2023-01-07T07:30:51.331Z,145529.22
2023-01-07T07:33:19.355Z,145509.75
2023-01-07T07:35:47.099Z,145506.09
2023-01-07T07:38:14.317Z,145519.47
2023-01-07T07:40:41.190Z,145531.63
2023-01-07T07:43:11.821Z,145524.31
2023-01-07T07:45:39.970Z,145538.94
2023-01-07T07:48:07.669Z,145538.94
2023-01-07T07:50:35.222Z,145524.31
2023-01-07T07:53:02.089Z,145504.91
2023-01-07T07:55:28.927Z,145529.22
2023-01-07T07:57:56.497Z,145547.44
2023-01-07T08:00:23.433Z,145540.13
2023-01-07T08:02:50.316Z,145519.47
2023-01-07T08:05:17.237Z,145534.06
2023-01-07T08:07:44.061Z,145546.19
2023-01-07T08:10:10.933Z,145529.22
2023-01-07T08:12:38.328Z,145532.81
2023-01-07T08:15:06.571Z,145541.34
2023-01-07T08:17:33.534Z,145538.94
2023-01-07T08:20:00.460Z,145520.72
2023-01-07T08:22:27.562Z,145517.06
2023-01-07T08:24:54.527Z,145548.66
2023-01-07T08:27:21.368Z,145519.47
2023-01-07T08:29:48.376Z,145534.06
2023-01-07T08:32:15.372Z,145542.53
2023-01-07T08:34:42.222Z,145558.34
2023-01-07T08:37:11.039Z,145560.75
2023-01-07T08:39:38.023Z,145546.19
2023-01-07T08:42:05.023Z,145531.63
2023-01-07T08:44:32.464Z,145538.94
2023-01-07T08:46:59.321Z,145540.13
2023-01-07T08:49:26.145Z,145541.34
2023-01-07T08:51:52.946Z,145541.34
2023-01-07T08:54:19.748Z,145558.34
2023-01-07T08:56:46.575Z,145583.88
2023-01-07T08:59:13.430Z,145547.44
2023-01-07T09:01:40.478Z,145580.22
2023-01-07T09:04:07.489Z,145585.09
2023-01-07T09:06:34.387Z,145585.09
2023-01-07T09:09:01.213Z,145577.78
2023-01-07T09:11:28.044Z,145580.22
2023-01-07T09:13:54.841Z,145604.50
2023-01-07T09:16:21.729Z,145617.88
2023-01-07T09:18:48.870Z,145626.38
2023-01-07T09:21:15.749Z,145633.66
2023-01-07T09:23:42.673Z,145645.81
2023-01-07T09:26:09.595Z,145653.13
2023-01-07T09:28:36.405Z,145676.19
2023-01-07T09:31:04.195Z,145661.63
2023-01-07T09:33:31.040Z,145655.53
2023-01-07T09:35:57.904Z,145675.00
2023-01-07T09:38:24.758Z,145665.25
2023-01-07T09:40:52.024Z,145660.38
2023-01-07T09:43:22.409Z,145657.97
2023-01-07T09:45:53.893Z,145687.13
2023-01-07T09:48:24.805Z,145682.25
2023-01-07T09:50:57.927Z,145689.56
2023-01-07T09:53:27.510Z,145699.34
2023-01-07T09:56:10.826Z,145710.25
2023-01-07T09:58:41.399Z,145716.38
2023-01-07T10:01:20.380Z,145719.97
2023-01-07T10:03:47.286Z,145717.56
2023-01-07T10:06:17.217Z,145741.84
2023-01-07T10:08:44.592Z,145750.38
2023-01-07T10:11:20.791Z,145788.03
2023-01-07T10:13:57.791Z,145808.72
2023-01-07T10:16:35.463Z,145811.13
2023-01-07T10:19:16.187Z,145803.88
2023-01-07T10:21:47.369Z,145819.66
2023-01-07T10:24:15.173Z,145816.00
2023-01-07T10:26:44.167Z,145803.88
2023-01-07T10:29:14.263Z,145764.94
2023-01-07T10:31:41.657Z,145743.06
2023-01-07T10:34:16.429Z,145726.09
2023-01-07T10:36:52.562Z,145732.16
2023-01-07T10:39:28.498Z,145713.91
2023-01-07T10:41:55.279Z,145735.78
2023-01-07T10:44:40.803Z,145727.28
2023-01-07T10:47:13.709Z,145738.19
2023-01-07T10:49:54.527Z,145728.50
2023-01-07T10:52:29.301Z,145757.69
2023-01-07T10:54:56.096Z,145745.50
2023-01-07T10:57:24.509Z,145743.06
2023-01-07T10:59:53.540Z,145750.38
2023-01-07T11:02:22.388Z,145769.81
2023-01-07T11:04:49.442Z,145784.38
2023-01-07T11:07:28.608Z,145775.91
2023-01-07T11:09:56.099Z,145785.63
2023-01-07T11:12:22.873Z,145779.53
2023-01-07T11:14:50.563Z,145806.28
2023-01-07T11:17:34.856Z,145824.50
2023-01-07T11:20:01.989Z,145796.56
2023-01-07T11:22:33.971Z,145816.00
2023-01-07T11:25:01.603Z,145823.31
2023-01-07T11:27:30.134Z,145813.59
2023-01-07T11:29:59.990Z,145816.00
2023-01-07T11:32:28.651Z,145797.75
2023-01-07T11:34:57.036Z,145826.97
2023-01-07T11:37:31.307Z,145830.63
2023-01-07T11:39:59.663Z,145828.16
2023-01-07T11:42:38.548Z,145841.53
2023-01-07T11:45:19.251Z,145831.81
2023-01-07T11:47:55.235Z,145860.97
2023-01-07T11:50:26.969Z,145867.09
2023-01-07T11:52:57.779Z,145863.44
2023-01-07T11:55:24.610Z,145874.34
2023-01-07T11:58:00.934Z,145873.16
2023-01-07T12:00:41.756Z,145854.91
2023-01-07T12:03:12.716Z,145854.91
2023-01-07T12:05:41.210Z,145881.66
2023-01-07T12:08:17.733Z,145876.81
2023-01-07T12:10:44.600Z,145890.19
2023-01-07T12:13:21.115Z,145924.22
2023-01-07T12:15:58.785Z,145930.28
2023-01-07T12:18:40.461Z,145899.91
2023-01-07T12:21:10.065Z,145913.28
2023-01-07T12:23:36.837Z,145920.56
2023-01-07T12:26:03.658Z,145927.88
2023-01-07T12:28:36.480Z,145905.97
2023-01-07T12:31:29.449Z,145925.41
2023-01-07T12:33:56.270Z,145927.88
2023-01-07T12:36:41.899Z,145920.56
2023-01-07T12:39:14.609Z,145932.72
2023-01-07T12:41:43.313Z,145925.41
2023-01-07T12:44:14.809Z,145937.59
2023-01-07T12:46:44.199Z,145923.00
2023-01-07T12:49:11.011Z,145935.19
2023-01-07T12:51:44.174Z,145944.91
2023-01-07T12:54:17.185Z,145950.97
2023-01-07T12:56:53.805Z,145918.16
2023-01-07T12:59:46.201Z,145893.78
2023-01-07T13:02:19.849Z,145896.25
2023-01-07T13:04:53.015Z,145918.16
2023-01-07T13:07:24.853Z,145881.66
2023-01-07T13:10:00.438Z,145888.94
2023-01-07T13:12:48.041Z,145891.38
2023-01-07T13:15:20.609Z,145919.34
2023-01-07T13:17:51.577Z,145902.31
2023-01-07T13:20:35.051Z,145891.38
2023-01-07T13:23:04.329Z,145908.44
2023-01-07T13:25:39.841Z,145908.44
2023-01-07T13:28:35.805Z,145901.09
2023-01-07T13:31:11.098Z,145888.94
2023-01-07T13:33:44.873Z,145857.31
2023-01-07T13:36:22.395Z,145869.50
2023-01-07T13:38:58.312Z,145882.88
2023-01-07T13:41:41.111Z,145864.63
2023-01-07T13:44:17.212Z,145829.38
2023-01-07T13:46:45.602Z,145812.38
2023-01-07T13:49:23.703Z,145809.94
2023-01-07T13:51:50.796Z,145812.38
2023-01-07T13:54:36.521Z,145828.16
2023-01-07T13:57:23.355Z,145808.72
2023-01-07T13:59:52.616Z,145803.88
2023-01-07T14:02:21.638Z,145796.56
2023-01-07T14:04:51.586Z,145781.97
2023-01-07T14:07:19.621Z,145763.75
2023-01-07T14:09:46.499Z,145752.81
2023-01-07T14:12:13.332Z,145772.25
2023-01-07T14:14:40.194Z,145767.41
2023-01-07T14:17:14.290Z,145740.66
2023-01-07T14:19:43.836Z,145740.66
2023-01-07T14:22:32.439Z,145739.44
2023-01-07T14:25:11.862Z,145735.78
2023-01-07T14:27:50.468Z,145730.94
2023-01-07T14:30:22.290Z,145738.19
2023-01-07T14:33:00.176Z,145726.09
2023-01-07T14:35:30.375Z,145745.50
2023-01-07T14:37:57.220Z,145756.44
2023-01-07T14:40:27.268Z,145738.19
2023-01-07T14:42:54.286Z,145727.28
2023-01-07T14:45:36.310Z,145732.16
2023-01-07T14:48:09.156Z,145718.78
2023-01-07T14:50:54.841Z,145726.09
2023-01-07T14:53:37.263Z,145701.75
2023-01-07T14:56:39.709Z,145682.25
2023-01-07T14:59:06.528Z,145689.56
2023-01-07T15:01:56.864Z,145677.41
2023-01-07T15:04:23.780Z,145679.84
2023-01-07T15:06:51.674Z,145694.44
2023-01-07T15:09:41.528Z,145672.56
2023-01-07T15:12:32.859Z,145679.84
2023-01-07T15:15:41.833Z,145670.09
2023-01-07T15:18:09.820Z,145623.94
2023-01-07T15:20:52.035Z,145654.31
2023-01-07T15:23:29.700Z,145679.84
2023-01-07T15:26:01.816Z,145670.09
2023-01-07T15:28:37.805Z,145648.28
2023-01-07T15:31:13.495Z,145659.19
2023-01-07T15:34:09.571Z,145653.13
2023-01-07T15:36:44.565Z,145653.13
2023-01-07T15:39:16.903Z,145631.25
2023-01-07T15:41:43.983Z,145638.56
2023-01-07T15:44:18.709Z,145650.66
2023-01-07T15:46:45.850Z,145645.81
2023-01-07T15:49:20.701Z,145628.78
2023-01-07T15:51:49.529Z,145611.81
2023-01-07T15:54:21.406Z,145621.53
2023-01-07T15:56:49.801Z,145569.28
2023-01-07T15:59:20.866Z,145577.78
2023-01-07T16:01:48.896Z,145577.78
2023-01-07T16:04:24.375Z,145575.38
2023-01-07T16:06:55.511Z,145589.94
2023-01-07T16:09:22.486Z,145587.50
2023-01-07T16:11:49.344Z,145558.34
2023-01-07T16:14:17.668Z,145530.41
2023-01-07T16:16:44.548Z,145521.91
2023-01-07T16:19:16.528Z,145514.59
2023-01-07T16:21:49.047Z,145548.66
2023-01-07T16:24:16.383Z,145485.47
2023-01-07T16:26:49.466Z,145456.34
2023-01-07T16:29:18.637Z,145440.53
2023-01-07T16:31:45.952Z,145419.94
2023-01-07T16:34:24.986Z,145388.34
2023-01-07T16:37:01.304Z,145388.34
2023-01-07T16:39:54.493Z,145385.91
2023-01-07T16:42:26.096Z,145387.09
2023-01-07T16:44:52.892Z,145378.59
2023-01-07T16:47:23.617Z,145383.50
2023-01-07T16:49:50.961Z,145384.69
2023-01-07T16:52:18.810Z,145385.91
2023-01-07T16:54:45.984Z,145402.91
2023-01-07T16:57:12.826Z,145424.78
2023-01-07T16:59:53.687Z,145443.00
2023-01-07T17:02:23.973Z,145446.59
2023-01-07T17:04:50.810Z,145464.81
2023-01-07T17:07:24.932Z,145455.09
2023-01-07T17:09:53.532Z,145458.75
2023-01-07T17:12:30.114Z,145473.31
2023-01-07T17:14:57.176Z,145451.44
2023-01-07T17:17:31.158Z,145419.94
2023-01-07T17:20:13.535Z,145391.97
2023-01-07T17:22:41.592Z,145368.91
2023-01-07T17:25:15.766Z,145339.78
2023-01-07T17:27:55.235Z,145291.22
2023-01-07T17:30:22.870Z,145269.34
2023-01-07T17:32:51.044Z,145237.81
2023-01-07T17:35:19.734Z,145230.50
2023-01-07T17:37:46.704Z,145208.66
2023-01-07T17:40:14.574Z,145232.91
2023-01-07T17:43:00.770Z,145201.41
2023-01-07T17:45:28.106Z,145194.09
2023-01-07T17:47:55.219Z,145169.84
2023-01-07T17:50:22.378Z,145161.34
2023-01-07T17:52:50.488Z,145172.25
2023-01-07T17:55:20.434Z,145155.25
2023-01-07T17:57:47.256Z,145156.50
2023-01-07T18:00:15.513Z,145140.69
2023-01-07T18:02:42.456Z,145133.44
2023-01-07T18:05:27.334Z,145154.06
2023-01-07T18:07:54.205Z,145145.56
2023-01-07T18:10:25.768Z,145157.69
2023-01-07T18:12:52.576Z,145150.41
2023-01-07T18:15:19.384Z,145174.69
2023-01-07T18:17:46.325Z,145179.53
2023-01-07T18:20:14.324Z,145189.25
2023-01-07T18:22:41.324Z,145203.78
2023-01-07T18:25:13.321Z,145194.09
2023-01-07T18:27:40.150Z,145209.84
2023-01-07T18:30:07.352Z,145203.78
2023-01-07T18:32:34.156Z,145174.69
2023-01-07T18:35:00.992Z,145174.69
2023-01-07T18:37:27.789Z,145172.25
2023-01-07T18:39:55.739Z,145169.84
2023-01-07T18:42:22.595Z,145155.25
2023-01-07T18:44:49.425Z,145143.16
2023-01-07T18:47:16.225Z,145127.34
2023-01-07T18:49:43.020Z,145111.59
2023-01-07T18:52:10.630Z,145116.44
2023-01-07T18:54:39.736Z,145129.81
2023-01-07T18:57:06.783Z,145127.34
2023-01-07T18:59:33.600Z,145141.91
2023-01-07T19:02:00.643Z,145150.41
2023-01-07T19:04:27.757Z,145165.00
2023-01-07T19:06:54.726Z,145171.03
2023-01-07T19:09:22.961Z,145201.41
2023-01-07T19:11:49.841Z,145198.94
2023-01-07T19:14:16.687Z,145201.41
2023-01-07T19:16:43.998Z,145165.00
2023-01-07T19:19:10.933Z,145168.59
2023-01-07T19:21:37.793Z,145168.59
2023-01-07T19:24:04.795Z,145189.25
2023-01-07T19:26:31.677Z,145198.94
2023-01-07T19:28:58.485Z,145207.44
2023-01-07T19:31:25.456Z,145219.59
2023-01-07T19:33:52.345Z,145236.56
2023-01-07T19:36:19.173Z,145203.78
2023-01-07T19:38:46.986Z,145277.84
2023-01-07T19:41:15.864Z,145288.81
2023-01-07T19:43:43.310Z,145293.66
2023-01-07T19:46:11.246Z,145315.50
2023-01-07T19:48:38.438Z,145313.06
2023-01-07T19:51:06.024Z,145345.84
2023-01-07T19:53:33.377Z,145371.34
2023-01-07T19:56:00.843Z,145382.25
2023-01-07T19:58:28.176Z,145385.91
2023-01-07T20:00:55.333Z,145390.75
2023-01-07T20:03:22.340Z,145398.06
2023-01-07T20:05:49.187Z,145400.47
2023-01-07T20:08:16.018Z,145376.19
2023-01-07T20:10:42.822Z,145389.56
2023-01-07T20:13:10.082Z,145381.06
2023-01-07T20:15:36.958Z,145417.47
2023-01-07T20:18:03.865Z,145424.78
2023-01-07T20:20:30.692Z,145430.84
2023-01-07T20:22:58.639Z,145429.63
2023-01-07T20:25:25.494Z,145441.75
2023-01-07T20:27:52.324Z,145429.63
2023-01-07T20:30:19.245Z,145432.03
2023-01-07T20:32:46.158Z,145441.75
2023-01-07T20:35:13.030Z,145450.25
2023-01-07T20:37:39.819Z,145462.41
2023-01-07T20:40:07.016Z,145475.78
2023-01-07T20:42:33.929Z,145486.69
2023-01-07T20:45:00.953Z,145507.34
2023-01-07T20:47:27.822Z,145496.41
2023-01-07T20:49:54.625Z,145502.50
2023-01-07T20:52:21.447Z,145509.75
2023-01-07T20:54:48.801Z,145519.47
2023-01-07T20:57:15.602Z,145498.84
2023-01-07T20:59:42.416Z,145497.63
2023-01-07T21:02:14.127Z,145476.97
2023-01-07T21:04:41.041Z,145468.47
2023-01-07T21:07:07.861Z,145484.28
2023-01-07T21:09:34.699Z,145458.75
2023-01-07T21:12:01.535Z,145478.16
2023-01-07T21:14:28.383Z,145470.91
2023-01-07T21:16:55.269Z,145455.09
2023-01-07T21:19:22.199Z,145469.66
2023-01-07T21:21:50.523Z,145461.22
2023-01-07T21:24:17.481Z,145458.75
2023-01-07T21:26:44.422Z,145456.34
2023-01-07T21:29:12.384Z,145449.03
2023-01-07T21:31:39.281Z,145447.84
2023-01-07T21:34:06.109Z,145446.59
2023-01-07T21:36:32.996Z,145444.19
2023-01-07T21:39:00.317Z,145424.78
2023-01-07T21:41:28.406Z,145427.19
2023-01-07T21:43:55.386Z,145402.91
2023-01-07T21:46:22.656Z,145357.97
2023-01-07T21:48:50.078Z,145366.50
2023-01-07T21:51:24.538Z,145379.84
2023-01-07T21:53:52.321Z,145398.06
2023-01-07T21:56:19.393Z,145404.13
2023-01-07T21:58:46.371Z,145424.78
2023-01-07T22:01:13.984Z,145411.41
2023-01-07T22:03:43.487Z,145432.03
2023-01-07T22:06:39.751Z,145436.88
2023-01-07T22:09:08.395Z,145429.63
2023-01-07T22:11:38.425Z,145456.34
2023-01-07T22:14:05.289Z,145450.25
2023-01-07T22:16:32.603Z,145463.63
2023-01-07T22:18:59.971Z,145484.28
2023-01-07T22:21:26.979Z,145495.19
2023-01-07T22:23:53.803Z,145507.34
2023-01-07T22:26:20.790Z,145512.19
2023-01-07T22:28:51.116Z,145517.06
2023-01-07T22:31:17.965Z,145520.72
2023-01-07T22:33:44.829Z,145526.78
2023-01-07T22:36:17.420Z,145512.19
2023-01-07T22:38:44.605Z,145514.59
2023-01-07T22:41:11.856Z,145541.34
2023-01-07T22:43:38.896Z,145526.78
2023-01-07T22:46:09.792Z,145543.78
2023-01-07T22:48:38.481Z,145545.00
2023-01-07T22:51:14.846Z,145532.81
2023-01-07T22:53:41.694Z,145558.34
2023-01-07T22:56:08.638Z,145575.38
2023-01-07T22:58:35.450Z,145565.66
2023-01-07T23:01:02.287Z,145559.56
2023-01-07T23:03:29.231Z,145555.91
2023-01-07T23:05:56.176Z,145565.66
2023-01-07T23:08:23.007Z,145583.88
2023-01-07T23:10:49.807Z,145575.38
2023-01-07T23:13:16.641Z,145572.91
2023-01-07T23:15:43.459Z,145570.50
2023-01-07T23:18:11.232Z,145589.94
2023-01-07T23:20:39.163Z,145597.19
2023-01-07T23:23:06.206Z,145566.88
2023-01-07T23:25:33.023Z,145587.50
2023-01-07T23:27:59.927Z,145582.63
2023-01-07T23:30:26.931Z,145582.63
2023-01-07T23:32:53.780Z,145574.13
2023-01-07T23:35:20.708Z,145587.50
2023-01-07T23:37:47.516Z,145600.84
2023-01-07T23:40:14.314Z,145585.09
2023-01-07T23:42:41.144Z,145603.31
2023-01-07T23:45:08.268Z,145606.97
2023-01-07T23:47:35.063Z,145604.50
2023-01-07T23:50:01.895Z,145619.06
2023-01-07T23:52:29.339Z,145592.34
2023-01-07T23:54:56.127Z,145596.00
2023-01-07T23:57:22.944Z,145597.19
2023-01-07T23:59:49.763Z,145611.81
